sensor_id;sensor_type;location;lat;lon;timestamp;pressure;altitude;pressure_sealevel;temperature;humidity
25560;BME280;13450;49.374;8.584;2022-08-07T00:00:56;101118.81;;;19.78;nan
25560;BME280;13450;49.374;8.584;2022-08-07T00:03:22;101122.03;;;19.86;nan
25560;BME280;13450;49.374;8.584;2022-08-07T00:05:48;101109.59;;;19.79;nan
25560;BME280;13450;49.374;8.584;2022-08-07T00:08:16;101102.53;;;19.78;nan
25560;BME280;13450;49.374;8.584;2022-08-07T00:10:43;101114.91;;;19.73;nan
25560;BME280;13450;49.374;8.584;2022-08-07T00:13:08;101109.69;;;19.72;nan
25560;BME280;13450;49.374;8.584;2022-08-07T00:15:33;101109.59;;;19.79;nan
25560;BME280;13450;49.374;8.584;2022-08-07T00:17:59;101103.81;;;19.75;nan
25560;BME280;13450;49.374;8.584;2022-08-07T00:20:25;101114.28;;;19.71;nan
25560;BME280;13450;49.374;8.584;2022-08-07T00:22:53;101102.41;;;19.72;nan
25560;BME280;13450;49.374;8.584;2022-08-07T00:25:18;101102.84;;;19.69;nan
25560;BME280;13450;49.374;8.584;2022-08-07T00:27:45;101101.66;;;19.65;nan
25560;BME280;13450;49.374;8.584;2022-08-07T00:30:11;101098.19;;;19.58;nan
25560;BME280;13450;49.374;8.584;2022-08-07T00:32:37;101108.91;;;19.53;nan
25560;BME280;13450;49.374;8.584;2022-08-07T00:35:02;101109.59;;;19.48;nan
25560;BME280;13450;49.374;8.584;2022-08-07T00:37:30;101108.19;;;19.45;nan
25560;BME280;13450;49.374;8.584;2022-08-07T00:39:55;101115.94;;;19.42;nan
25560;BME280;13450;49.374;8.584;2022-08-07T00:42:21;101118.28;;;19.38;nan
25560;BME280;13450;49.374;8.584;2022-08-07T00:44:46;101113.91;;;19.37;nan
25560;BME280;13450;49.374;8.584;2022-08-07T00:47:12;101110.59;;;19.35;nan
25560;BME280;13450;49.374;8.584;2022-08-07T00:49:55;101105.50;;;19.27;nan
25560;BME280;13450;49.374;8.584;2022-08-07T00:52:20;101103.44;;;19.22;nan
25560;BME280;13450;49.374;8.584;2022-08-07T00:54:47;101103.38;;;19.10;nan
25560;BME280;13450;49.374;8.584;2022-08-07T00:57:13;101098.41;;;19.07;nan
25560;BME280;13450;49.374;8.584;2022-08-07T00:59:38;101106.34;;;19.02;nan
25560;BME280;13450;49.374;8.584;2022-08-07T01:02:05;101101.38;;;18.99;nan
25560;BME280;13450;49.374;8.584;2022-08-07T01:04:31;101105.59;;;18.94;nan
25560;BME280;13450;49.374;8.584;2022-08-07T01:06:57;101100.84;;;18.90;nan
25560;BME280;13450;49.374;8.584;2022-08-07T01:09:23;101107.09;;;18.90;nan
25560;BME280;13450;49.374;8.584;2022-08-07T01:11:51;101109.44;;;18.87;nan
25560;BME280;13450;49.374;8.584;2022-08-07T01:14:19;101110.06;;;18.89;nan
25560;BME280;13450;49.374;8.584;2022-08-07T01:16:44;101102.94;;;18.88;nan
25560;BME280;13450;49.374;8.584;2022-08-07T01:19:10;101108.38;;;18.88;nan
25560;BME280;13450;49.374;8.584;2022-08-07T01:21:36;101110.94;;;18.82;nan
25560;BME280;13450;49.374;8.584;2022-08-07T01:24:02;101112.00;;;18.81;nan
25560;BME280;13450;49.374;8.584;2022-08-07T01:26:28;101109.19;;;18.69;nan
25560;BME280;13450;49.374;8.584;2022-08-07T01:28:54;101114.69;;;18.63;nan
25560;BME280;13450;49.374;8.584;2022-08-07T01:31:21;101112.03;;;18.56;nan
25560;BME280;13450;49.374;8.584;2022-08-07T01:33:52;101112.31;;;18.48;nan
25560;BME280;13450;49.374;8.584;2022-08-07T01:36:18;101112.78;;;18.38;nan
25560;BME280;13450;49.374;8.584;2022-08-07T01:38:45;101110.59;;;18.28;nan
25560;BME280;13450;49.374;8.584;2022-08-07T01:41:12;101104.22;;;18.15;nan
25560;BME280;13450;49.374;8.584;2022-08-07T01:43:37;101118.00;;;18.07;nan
25560;BME280;13450;49.374;8.584;2022-08-07T01:46:03;101119.31;;;17.98;nan
25560;BME280;13450;49.374;8.584;2022-08-07T01:48:28;101123.94;;;17.90;nan
25560;BME280;13450;49.374;8.584;2022-08-07T01:51:00;101123.16;;;17.83;nan
25560;BME280;13450;49.374;8.584;2022-08-07T01:53:28;101116.94;;;17.76;nan
25560;BME280;13450;49.374;8.584;2022-08-07T01:56:00;101111.34;;;17.71;nan
25560;BME280;13450;49.374;8.584;2022-08-07T01:58:31;101112.41;;;17.70;nan
25560;BME280;13450;49.374;8.584;2022-08-07T02:01:00;101114.94;;;17.64;nan
25560;BME280;13450;49.374;8.584;2022-08-07T02:03:29;101117.00;;;17.62;nan
25560;BME280;13450;49.374;8.584;2022-08-07T02:06:01;101115.78;;;17.58;nan
25560;BME280;13450;49.374;8.584;2022-08-07T02:08:28;101107.66;;;17.58;nan
25560;BME280;13450;49.374;8.584;2022-08-07T02:10:55;101098.28;;;17.61;nan
25560;BME280;13450;49.374;8.584;2022-08-07T02:13:25;101097.88;;;17.64;nan
25560;BME280;13450;49.374;8.584;2022-08-07T02:15:51;101108.28;;;17.60;nan
25560;BME280;13450;49.374;8.584;2022-08-07T02:18:18;101103.28;;;17.64;nan
25560;BME280;13450;49.374;8.584;2022-08-07T02:20:46;101104.72;;;17.67;nan
25560;BME280;13450;49.374;8.584;2022-08-07T02:23:13;101106.53;;;17.73;nan
25560;BME280;13450;49.374;8.584;2022-08-07T02:25:42;101097.19;;;17.75;nan
25560;BME280;13450;49.374;8.584;2022-08-07T02:28:08;101101.50;;;17.83;nan
25560;BME280;13450;49.374;8.584;2022-08-07T02:30:35;101104.81;;;17.85;nan
25560;BME280;13450;49.374;8.584;2022-08-07T02:33:04;101097.69;;;17.91;nan
25560;BME280;13450;49.374;8.584;2022-08-07T02:35:32;101107.25;;;17.94;nan
25560;BME280;13450;49.374;8.584;2022-08-07T02:38:01;101096.00;;;17.97;nan
25560;BME280;13450;49.374;8.584;2022-08-07T02:40:29;101088.06;;;18.02;nan
25560;BME280;13450;49.374;8.584;2022-08-07T02:42:58;101096.78;;;18.04;nan
25560;BME280;13450;49.374;8.584;2022-08-07T02:45:25;101086.19;;;18.02;nan
25560;BME280;13450;49.374;8.584;2022-08-07T02:47:52;101081.38;;;18.04;nan
25560;BME280;13450;49.374;8.584;2022-08-07T02:50:17;101085.94;;;18.04;nan
25560;BME280;13450;49.374;8.584;2022-08-07T02:52:57;101086.78;;;18.04;nan
25560;BME280;13450;49.374;8.584;2022-08-07T02:55:25;101086.78;;;18.04;nan
25560;BME280;13450;49.374;8.584;2022-08-07T02:57:53;101077.38;;;18.07;nan
25560;BME280;13450;49.374;8.584;2022-08-07T03:00:21;101073.84;;;18.07;nan
25560;BME280;13450;49.374;8.584;2022-08-07T03:02:48;101077.19;;;18.09;nan
25560;BME280;13450;49.374;8.584;2022-08-07T03:05:17;101077.19;;;18.09;nan
25560;BME280;13450;49.374;8.584;2022-08-07T03:07:43;101081.78;;;18.08;nan
25560;BME280;13450;49.374;8.584;2022-08-07T03:10:09;101070.28;;;18.13;nan
25560;BME280;13450;49.374;8.584;2022-08-07T03:12:36;101065.69;;;18.13;nan
25560;BME280;13450;49.374;8.584;2022-08-07T03:15:03;101076.72;;;18.19;nan
25560;BME280;13450;49.374;8.584;2022-08-07T03:17:30;101076.31;;;18.15;nan
25560;BME280;13450;49.374;8.584;2022-08-07T03:19:59;101065.94;;;18.12;nan
25560;BME280;13450;49.374;8.584;2022-08-07T03:22:25;101062.81;;;18.08;nan
25560;BME280;13450;49.374;8.584;2022-08-07T03:24:53;101064.50;;;18.09;nan
25560;BME280;13450;49.374;8.584;2022-08-07T03:27:18;101066.97;;;18.04;nan
25560;BME280;13450;49.374;8.584;2022-08-07T03:29:47;101069.09;;;18.02;nan
25560;BME280;13450;49.374;8.584;2022-08-07T03:32:14;101069.53;;;17.99;nan
25560;BME280;13450;49.374;8.584;2022-08-07T03:34:45;101068.94;;;17.97;nan
25560;BME280;13450;49.374;8.584;2022-08-07T03:37:12;101076.00;;;17.98;nan
25560;BME280;13450;49.374;8.584;2022-08-07T03:39:39;101076.47;;;17.88;nan
25560;BME280;13450;49.374;8.584;2022-08-07T03:42:07;101079.47;;;17.73;nan
25560;BME280;13450;49.374;8.584;2022-08-07T03:44:35;101074.16;;;17.59;nan
25560;BME280;13450;49.374;8.584;2022-08-07T03:47:01;101084.03;;;17.40;nan
25560;BME280;13450;49.374;8.584;2022-08-07T03:49:29;101086.19;;;17.24;nan
25560;BME280;13450;49.374;8.584;2022-08-07T03:51:55;101090.59;;;17.05;nan
25560;BME280;13450;49.374;8.584;2022-08-07T03:54:22;101082.72;;;16.97;nan
25560;BME280;13450;49.374;8.584;2022-08-07T03:56:48;101081.91;;;16.90;nan
25560;BME280;13450;49.374;8.584;2022-08-07T03:59:15;101082.31;;;16.86;nan
25560;BME280;13450;49.374;8.584;2022-08-07T04:01:42;101079.81;;;16.85;nan
25560;BME280;13450;49.374;8.584;2022-08-07T04:04:11;101081.31;;;16.81;nan
25560;BME280;13450;49.374;8.584;2022-08-07T04:06:37;101097.31;;;16.69;nan
25560;BME280;13450;49.374;8.584;2022-08-07T04:09:05;101092.34;;;16.52;nan
25560;BME280;13450;49.374;8.584;2022-08-07T04:11:32;101089.88;;;16.37;nan
25560;BME280;13450;49.374;8.584;2022-08-07T04:14:00;101095.66;;;16.27;nan
25560;BME280;13450;49.374;8.584;2022-08-07T04:16:29;101096.72;;;16.13;nan
25560;BME280;13450;49.374;8.584;2022-08-07T04:18:54;101088.19;;;16.09;nan
25560;BME280;13450;49.374;8.584;2022-08-07T04:21:22;101089.84;;;16.10;nan
25560;BME280;13450;49.374;8.584;2022-08-07T04:23:48;101097.75;;;15.98;nan
25560;BME280;13450;49.374;8.584;2022-08-07T04:26:14;101090.19;;;15.87;nan
25560;BME280;13450;49.374;8.584;2022-08-07T04:28:42;101096.00;;;15.77;nan
25560;BME280;13450;49.374;8.584;2022-08-07T04:31:08;101100.13;;;15.66;nan
25560;BME280;13450;49.374;8.584;2022-08-07T04:33:35;101098.22;;;15.60;nan
25560;BME280;13450;49.374;8.584;2022-08-07T04:36:05;101100.09;;;15.59;nan
25560;BME280;13450;49.374;8.584;2022-08-07T04:38:34;101105.06;;;15.62;nan
25560;BME280;13450;49.374;8.584;2022-08-07T04:40:59;101103.00;;;15.58;nan
25560;BME280;13450;49.374;8.584;2022-08-07T04:43:37;101105.06;;;15.62;nan
25560;BME280;13450;49.374;8.584;2022-08-07T04:46:06;101116.31;;;15.66;nan
25560;BME280;13450;49.374;8.584;2022-08-07T04:48:49;101108.44;;;15.71;nan
25560;BME280;13450;49.374;8.584;2022-08-07T04:54:00;101123.00;;;15.77;nan
25560;BME280;13450;49.374;8.584;2022-08-07T04:56:37;101120.06;;;15.78;nan
25560;BME280;13450;49.374;8.584;2022-08-07T05:00:02;101114.06;;;15.76;nan
25560;BME280;13450;49.374;8.584;2022-08-07T05:02:34;101125.47;;;15.78;nan
25560;BME280;13450;49.374;8.584;2022-08-07T05:05:10;101127.75;;;15.81;nan
25560;BME280;13450;49.374;8.584;2022-08-07T05:07:39;101126.31;;;15.86;nan
25560;BME280;13450;49.374;8.584;2022-08-07T05:10:18;101123.47;;;15.94;nan
25560;BME280;13450;49.374;8.584;2022-08-07T05:12:59;101137.19;;;15.99;nan
25560;BME280;13450;49.374;8.584;2022-08-07T05:15:32;101130.13;;;15.98;nan
25560;BME280;13450;49.374;8.584;2022-08-07T05:18:27;101139.25;;;15.97;nan
25560;BME280;13450;49.374;8.584;2022-08-07T05:20:58;101138.44;;;16.03;nan
25560;BME280;13450;49.374;8.584;2022-08-07T05:23:32;101142.16;;;15.95;nan
25560;BME280;13450;49.374;8.584;2022-08-07T05:26:01;101143.19;;;16.01;nan
25560;BME280;13450;49.374;8.584;2022-08-07T05:28:31;101136.78;;;16.02;nan
25560;BME280;13450;49.374;8.584;2022-08-07T05:30:59;101144.25;;;16.07;nan
25560;BME280;13450;49.374;8.584;2022-08-07T05:33:27;101147.59;;;16.16;nan
25560;BME280;13450;49.374;8.584;2022-08-07T05:35:54;101144.28;;;16.27;nan
25560;BME280;13450;49.374;8.584;2022-08-07T05:38:20;101148.44;;;16.37;nan
25560;BME280;13450;49.374;8.584;2022-08-07T05:40:46;101149.06;;;16.39;nan
25560;BME280;13450;49.374;8.584;2022-08-07T05:43:14;101144.94;;;16.36;nan
25560;BME280;13450;49.374;8.584;2022-08-07T05:45:41;101145.34;;;16.40;nan
25560;BME280;13450;49.374;8.584;2022-08-07T05:48:09;101150.72;;;16.40;nan
25560;BME280;13450;49.374;8.584;2022-08-07T05:50:35;101156.13;;;16.53;nan
25560;BME280;13450;49.374;8.584;2022-08-07T05:53:01;101155.50;;;16.65;nan
25560;BME280;13450;49.374;8.584;2022-08-07T05:55:28;101159.69;;;16.81;nan
25560;BME280;13450;49.374;8.584;2022-08-07T05:57:55;101152.75;;;16.98;nan
25560;BME280;13450;49.374;8.584;2022-08-07T06:00:22;101159.66;;;17.08;nan
25560;BME280;13450;49.374;8.584;2022-08-07T06:02:49;101150.50;;;17.16;nan
25560;BME280;13450;49.374;8.584;2022-08-07T06:05:16;101151.72;;;17.27;nan
25560;BME280;13450;49.374;8.584;2022-08-07T06:07:45;101154.59;;;17.38;nan
25560;BME280;13450;49.374;8.584;2022-08-07T06:10:11;101155.59;;;17.51;nan
25560;BME280;13450;49.374;8.584;2022-08-07T06:12:36;101158.66;;;17.61;nan
25560;BME280;13450;49.374;8.584;2022-08-07T06:15:01;101153.22;;;17.68;nan
25560;BME280;13450;49.374;8.584;2022-08-07T06:17:27;101157.53;;;17.76;nan
25560;BME280;13450;49.374;8.584;2022-08-07T06:19:53;101157.69;;;17.88;nan
25560;BME280;13450;49.374;8.584;2022-08-07T06:22:20;101153.88;;;18.02;nan
25560;BME280;13450;49.374;8.584;2022-08-07T06:24:49;101159.25;;;18.16;nan
25560;BME280;13450;49.374;8.584;2022-08-07T06:27:22;101163.34;;;18.25;nan
25560;BME280;13450;49.374;8.584;2022-08-07T06:29:51;101168.66;;;18.39;nan
25560;BME280;13450;49.374;8.584;2022-08-07T06:32:19;101155.22;;;18.51;nan
25560;BME280;13450;49.374;8.584;2022-08-07T06:34:44;101162.03;;;18.60;nan
25560;BME280;13450;49.374;8.584;2022-08-07T06:37:10;101157.97;;;18.69;nan
25560;BME280;13450;49.374;8.584;2022-08-07T06:39:36;101152.28;;;18.78;nan
25560;BME280;13450;49.374;8.584;2022-08-07T06:42:17;101159.06;;;18.87;nan
25560;BME280;13450;49.374;8.584;2022-08-07T06:44:46;101163.16;;;18.97;nan
25560;BME280;13450;49.374;8.584;2022-08-07T06:47:14;101161.19;;;19.04;nan
25560;BME280;13450;49.374;8.584;2022-08-07T06:49:43;101160.13;;;19.12;nan
25560;BME280;13450;49.374;8.584;2022-08-07T06:52:10;101154.16;;;19.21;nan
25560;BME280;13450;49.374;8.584;2022-08-07T06:54:39;101157.03;;;19.27;nan
25560;BME280;13450;49.374;8.584;2022-08-07T06:57:06;101152.97;;;19.36;nan
25560;BME280;13450;49.374;8.584;2022-08-07T06:59:36;101151.28;;;19.35;nan
25560;BME280;13450;49.374;8.584;2022-08-07T07:02:03;101150.53;;;19.46;nan
25560;BME280;13450;49.374;8.584;2022-08-07T07:04:30;101152.09;;;19.54;nan
25560;BME280;13450;49.374;8.584;2022-08-07T07:06:55;101154.50;;;19.63;nan
25560;BME280;13450;49.374;8.584;2022-08-07T07:09:25;101152.69;;;19.75;nan
25560;BME280;13450;49.374;8.584;2022-08-07T07:14:27;101149.78;;;19.89;nan
25560;BME280;13450;49.374;8.584;2022-08-07T07:16:55;101150.75;;;19.94;nan
25560;BME280;13450;49.374;8.584;2022-08-07T07:19:29;101149.56;;;19.90;nan
25560;BME280;13450;49.374;8.584;2022-08-07T07:21:56;101151.03;;;20.05;nan
25560;BME280;13450;49.374;8.584;2022-08-07T07:24:22;101152.13;;;20.16;nan
25560;BME280;13450;49.374;8.584;2022-08-07T07:26:50;101150.97;;;20.23;nan
25560;BME280;13450;49.374;8.584;2022-08-07T07:29:20;101142.50;;;20.32;nan
25560;BME280;13450;49.374;8.584;2022-08-07T07:31:47;101149.81;;;20.43;nan
25560;BME280;13450;49.374;8.584;2022-08-07T07:34:29;101136.25;;;20.55;nan
25560;BME280;13450;49.374;8.584;2022-08-07T07:36:59;101137.78;;;20.63;nan
25560;BME280;13450;49.374;8.584;2022-08-07T07:39:26;101128.22;;;20.72;nan
25560;BME280;13450;49.374;8.584;2022-08-07T07:41:55;101131.16;;;20.83;nan
25560;BME280;13450;49.374;8.584;2022-08-07T07:44:21;101136.28;;;20.91;nan
25560;BME280;13450;49.374;8.584;2022-08-07T07:46:48;101138.88;;;20.98;nan
25560;BME280;13450;49.374;8.584;2022-08-07T07:49:17;101133.88;;;21.07;nan
25560;BME280;13450;49.374;8.584;2022-08-07T07:51:46;101136.72;;;21.12;nan
25560;BME280;13450;49.374;8.584;2022-08-07T07:54:14;101139.06;;;21.20;nan
25560;BME280;13450;49.374;8.584;2022-08-07T07:56:42;101127.22;;;21.26;nan
25560;BME280;13450;49.374;8.584;2022-08-07T07:59:08;101127.91;;;21.34;nan
25560;BME280;13450;49.374;8.584;2022-08-07T08:01:40;101129.69;;;21.40;nan
25560;BME280;13450;49.374;8.584;2022-08-07T08:04:07;101122.78;;;21.49;nan
25560;BME280;13450;49.374;8.584;2022-08-07T08:06:33;101127.25;;;21.55;nan
25560;BME280;13450;49.374;8.584;2022-08-07T08:09:04;101121.41;;;21.64;nan
25560;BME280;13450;49.374;8.584;2022-08-07T08:11:30;101121.75;;;21.67;nan
25560;BME280;13450;49.374;8.584;2022-08-07T08:13:56;101119.63;;;21.69;nan
25560;BME280;13450;49.374;8.584;2022-08-07T08:16:26;101117.03;;;21.75;nan
25560;BME280;13450;49.374;8.584;2022-08-07T08:19:03;101118.03;;;21.86;nan
25560;BME280;13450;49.374;8.584;2022-08-07T08:21:31;101112.75;;;21.96;nan
25560;BME280;13450;49.374;8.584;2022-08-07T08:24:17;101116.88;;;21.81;nan
25560;BME280;13450;49.374;8.584;2022-08-07T08:27:02;101116.25;;;21.91;nan
25560;BME280;13450;49.374;8.584;2022-08-07T08:30:00;101108.47;;;22.00;nan
25560;BME280;13450;49.374;8.584;2022-08-07T08:32:31;101116.00;;;22.10;nan
25560;BME280;13450;49.374;8.584;2022-08-07T08:35:00;101117.56;;;22.23;nan
25560;BME280;13450;49.374;8.584;2022-08-07T08:37:28;101110.63;;;22.32;nan
25560;BME280;13450;49.374;8.584;2022-08-07T08:39:55;101113.88;;;22.29;nan
25560;BME280;13450;49.374;8.584;2022-08-07T08:42:32;101115.09;;;22.39;nan
25560;BME280;13450;49.374;8.584;2022-08-07T08:45:11;101109.81;;;22.49;nan
25560;BME280;13450;49.374;8.584;2022-08-07T08:50:55;101114.44;;;22.66;nan
25560;BME280;13450;49.374;8.584;2022-08-07T08:53:42;101103.19;;;22.79;nan
25560;BME280;13450;49.374;8.584;2022-08-07T08:56:11;101103.97;;;22.97;nan
25560;BME280;13450;49.374;8.584;2022-08-07T08:58:59;101100.28;;;23.08;nan
25560;BME280;13450;49.374;8.584;2022-08-07T09:11:57;101080.34;;;23.30;nan
25560;BME280;13450;49.374;8.584;2022-08-07T09:14:39;101080.16;;;23.37;nan
25560;BME280;13450;49.374;8.584;2022-08-07T09:23:01;101088.44;;;23.70;nan
25560;BME280;13450;49.374;8.584;2022-08-07T09:25:47;101083.25;;;23.73;nan
25560;BME280;13450;49.374;8.584;2022-08-07T09:28:34;101077.09;;;23.83;nan
25560;BME280;13450;49.374;8.584;2022-08-07T09:39:51;101070.34;;;24.24;nan
25560;BME280;13450;49.374;8.584;2022-08-07T09:42:47;101065.59;;;24.52;nan
25560;BME280;13450;49.374;8.584;2022-08-07T09:45:43;101060.75;;;24.69;nan
25560;BME280;13450;49.374;8.584;2022-08-07T09:53:44;101052.19;;;25.09;nan
25560;BME280;13450;49.374;8.584;2022-08-07T10:04:23;101030.97;;;25.79;nan
25560;BME280;13450;49.374;8.584;2022-08-07T10:07:21;101028.78;;;25.91;nan
25560;BME280;13450;49.374;8.584;2022-08-07T10:10:02;101022.72;;;25.89;nan
25560;BME280;13450;49.374;8.584;2022-08-07T10:18:44;101016.41;;;26.20;nan
25560;BME280;13450;49.374;8.584;2022-08-07T10:27:42;101010.59;;;26.42;nan
25560;BME280;13450;49.374;8.584;2022-08-07T10:30:15;101012.81;;;26.40;nan
25560;BME280;13450;49.374;8.584;2022-08-07T10:41:32;101000.53;;;26.88;nan
25560;BME280;13450;49.374;8.584;2022-08-07T10:44:06;100994.22;;;26.98;nan
25560;BME280;13450;49.374;8.584;2022-08-07T10:46:40;100991.69;;;27.07;nan
25560;BME280;13450;49.374;8.584;2022-08-07T10:49:28;100996.09;;;27.02;nan
25560;BME280;13450;49.374;8.584;2022-08-07T10:52:33;100988.31;;;27.20;nan
25560;BME280;13450;49.374;8.584;2022-08-07T10:55:14;100989.75;;;27.47;nan
25560;BME280;13450;49.374;8.584;2022-08-07T10:58:00;100982.50;;;27.67;nan
25560;BME280;13450;49.374;8.584;2022-08-07T11:00:32;100989.34;;;27.99;nan
25560;BME280;13450;49.374;8.584;2022-08-07T11:03:06;100986.53;;;28.04;nan
25560;BME280;13450;49.374;8.584;2022-08-07T11:08:19;100975.88;;;28.71;nan
25560;BME280;13450;49.374;8.584;2022-08-07T11:11:06;100972.25;;;29.33;nan
25560;BME280;13450;49.374;8.584;2022-08-07T11:13:55;100970.81;;;29.55;nan
25560;BME280;13450;49.374;8.584;2022-08-07T11:16:42;100968.09;;;31.32;nan
25560;BME280;13450;49.374;8.584;2022-08-07T11:19:19;100960.88;;;33.64;nan
25560;BME280;13450;49.374;8.584;2022-08-07T11:22:04;100960.09;;;35.40;nan
25560;BME280;13450;49.374;8.584;2022-08-07T11:24:49;100960.88;;;37.02;nan
25560;BME280;13450;49.374;8.584;2022-08-07T11:27:29;100958.22;;;37.83;nan
25560;BME280;13450;49.374;8.584;2022-08-07T11:30:05;100952.97;;;39.05;nan
25560;BME280;13450;49.374;8.584;2022-08-07T11:32:38;100950.50;;;39.94;nan
25560;BME280;13450;49.374;8.584;2022-08-07T11:35:10;100949.00;;;41.26;nan
25560;BME280;13450;49.374;8.584;2022-08-07T11:43:05;100935.66;;;41.54;nan
25560;BME280;13450;49.374;8.584;2022-08-07T11:45:36;100935.47;;;42.48;nan
25560;BME280;13450;49.374;8.584;2022-08-07T11:48:38;100935.47;;;42.48;nan
25560;BME280;13450;49.374;8.584;2022-08-07T11:51:19;100932.63;;;42.33;nan
25560;BME280;13450;49.374;8.584;2022-08-07T11:56:57;100929.91;;;41.39;nan
25560;BME280;13450;49.374;8.584;2022-08-07T11:59:52;100925.69;;;41.64;nan
25560;BME280;13450;49.374;8.584;2022-08-07T12:05:59;100920.06;;;43.60;nan
25560;BME280;13450;49.374;8.584;2022-08-07T12:10:53;100912.44;;;43.46;nan
25560;BME280;13450;49.374;8.584;2022-08-07T12:13:40;100928.41;;;44.29;nan
25560;BME280;13450;49.374;8.584;2022-08-07T12:16:11;100932.13;;;43.82;nan
25560;BME280;13450;49.374;8.584;2022-08-07T12:18:52;100918.63;;;44.52;nan
25560;BME280;13450;49.374;8.584;2022-08-07T12:24:13;100906.78;;;43.75;nan
25560;BME280;13450;49.374;8.584;2022-08-07T12:26:47;100910.81;;;43.45;nan
25560;BME280;13450;49.374;8.584;2022-08-07T12:29:31;100900.75;;;44.84;nan
25560;BME280;13450;49.374;8.584;2022-08-07T12:34:48;100899.50;;;44.92;nan
25560;BME280;13450;49.374;8.584;2022-08-07T12:37:16;100891.34;;;45.09;nan
25560;BME280;13450;49.374;8.584;2022-08-07T12:39:45;100895.34;;;45.12;nan
25560;BME280;13450;49.374;8.584;2022-08-07T12:42:18;100899.91;;;46.56;nan
25560;BME280;13450;49.374;8.584;2022-08-07T12:44:48;100890.94;;;45.98;nan
25560;BME280;13450;49.374;8.584;2022-08-07T12:47:31;100894.97;;;46.63;nan
25560;BME280;13450;49.374;8.584;2022-08-07T12:50:21;100885.75;;;46.24;nan
25560;BME280;13450;49.374;8.584;2022-08-07T12:56:14;100877.03;;;46.11;nan
25560;BME280;13450;49.374;8.584;2022-08-07T12:58:45;100872.00;;;47.13;nan
25560;BME280;13450;49.374;8.584;2022-08-07T13:06:57;100877.16;;;47.18;nan
25560;BME280;13450;49.374;8.584;2022-08-07T13:15:13;100856.13;;;47.43;nan
25560;BME280;13450;49.374;8.584;2022-08-07T13:17:58;100850.44;;;47.43;nan
25560;BME280;13450;49.374;8.584;2022-08-07T13:20:44;100841.91;;;47.47;nan
25560;BME280;13450;49.374;8.584;2022-08-07T13:23:19;100846.41;;;47.20;nan
25560;BME280;13450;49.374;8.584;2022-08-07T13:26:00;100852.00;;;47.68;nan
25560;BME280;13450;49.374;8.584;2022-08-07T13:28:40;100843.28;;;47.14;nan
25560;BME280;13450;49.374;8.584;2022-08-07T13:31:44;100839.84;;;47.27;nan
25560;BME280;13450;49.374;8.584;2022-08-07T13:39:51;100834.00;;;46.59;nan
25560;BME280;13450;49.374;8.584;2022-08-07T13:42:23;100831.69;;;46.54;nan
25560;BME280;13450;49.374;8.584;2022-08-07T13:44:51;100824.03;;;45.88;nan
25560;BME280;13450;49.374;8.584;2022-08-07T13:47:18;100821.19;;;47.30;nan
25560;BME280;13450;49.374;8.584;2022-08-07T13:49:46;100816.13;;;47.17;nan
25560;BME280;13450;49.374;8.584;2022-08-07T13:52:14;100814.16;;;47.14;nan
25560;BME280;13450;49.374;8.584;2022-08-07T13:54:40;100816.50;;;47.19;nan
25560;BME280;13450;49.374;8.584;2022-08-07T13:57:11;100817.63;;;46.46;nan
25560;BME280;13450;49.374;8.584;2022-08-07T13:59:48;100816.38;;;46.51;nan
25560;BME280;13450;49.374;8.584;2022-08-07T14:02:23;100801.84;;;46.21;nan
25560;BME280;13450;49.374;8.584;2022-08-07T14:04:52;100801.84;;;45.52;nan
25560;BME280;13450;49.374;8.584;2022-08-07T14:07:23;100811.06;;;46.26;nan
25560;BME280;13450;49.374;8.584;2022-08-07T14:09:57;100800.44;;;45.29;nan
25560;BME280;13450;49.374;8.584;2022-08-07T14:14:59;100792.91;;;45.57;nan
25560;BME280;13450;49.374;8.584;2022-08-07T14:17:28;100785.16;;;45.26;nan
25560;BME280;13450;49.374;8.584;2022-08-07T14:20:02;100792.22;;;44.47;nan
25560;BME280;13450;49.374;8.584;2022-08-07T14:22:31;100789.09;;;44.30;nan
25560;BME280;13450;49.374;8.584;2022-08-07T14:25:00;100790.91;;;43.80;nan
25560;BME280;13450;49.374;8.584;2022-08-07T14:27:41;100791.78;;;43.55;nan
25560;BME280;13450;49.374;8.584;2022-08-07T14:30:08;100783.00;;;43.13;nan
25560;BME280;13450;49.374;8.584;2022-08-07T14:32:43;100778.47;;;42.32;nan
25560;BME280;13450;49.374;8.584;2022-08-07T14:35:22;100779.84;;;41.22;nan
25560;BME280;13450;49.374;8.584;2022-08-07T14:37:51;100774.63;;;41.21;nan
25560;BME280;13450;49.374;8.584;2022-08-07T14:40:22;100773.19;;;40.89;nan
25560;BME280;13450;49.374;8.584;2022-08-07T14:42:57;100768.28;;;40.06;nan
25560;BME280;13450;49.374;8.584;2022-08-07T14:45:26;100764.88;;;38.85;nan
25560;BME280;13450;49.374;8.584;2022-08-07T14:47:56;100769.94;;;38.16;nan
25560;BME280;13450;49.374;8.584;2022-08-07T14:50:23;100763.19;;;38.80;nan
25560;BME280;13450;49.374;8.584;2022-08-07T14:52:53;100764.69;;;38.74;nan
25560;BME280;13450;49.374;8.584;2022-08-07T14:55:25;100760.03;;;37.63;nan
25560;BME280;13450;49.374;8.584;2022-08-07T14:57:54;100753.75;;;38.06;nan
25560;BME280;13450;49.374;8.584;2022-08-07T15:00:28;100751.69;;;37.83;nan
25560;BME280;13450;49.374;8.584;2022-08-07T15:02:56;100752.06;;;37.81;nan
25560;BME280;13450;49.374;8.584;2022-08-07T15:05:22;100759.66;;;38.20;nan
25560;BME280;13450;49.374;8.584;2022-08-07T15:07:49;100759.34;;;38.06;nan
25560;BME280;13450;49.374;8.584;2022-08-07T15:10:16;100742.84;;;38.17;nan
25560;BME280;13450;49.374;8.584;2022-08-07T15:12:42;100747.25;;;37.62;nan
25560;BME280;13450;49.374;8.584;2022-08-07T15:15:12;100753.13;;;37.09;nan
25560;BME280;13450;49.374;8.584;2022-08-07T15:17:43;100743.94;;;36.31;nan
25560;BME280;13450;49.374;8.584;2022-08-07T15:20:14;100742.47;;;35.55;nan
25560;BME280;13450;49.374;8.584;2022-08-07T15:22:49;100745.88;;;36.15;nan
25560;BME280;13450;49.374;8.584;2022-08-07T15:25:22;100738.63;;;36.13;nan